sensor_id;sensor_type;location;lat;lon;timestamp;temperature;humidity
20706;DHT22;10514;49.468;11.044;2024-01-27T00:02:19;4.60;90.00
20706;DHT22;10514;49.468;11.044;2024-01-27T00:04:45;4.50;89.30
20706;DHT22;10514;49.468;11.044;2024-01-27T00:07:10;4.40;89.70
20706;DHT22;10514;49.468;11.044;2024-01-27T00:09:36;4.40;90.10
20706;DHT22;10514;49.468;11.044;2024-01-27T00:12:01;4.40;90.10
20706;DHT22;10514;49.468;11.044;2024-01-27T00:14:27;4.30;90.20
20706;DHT22;10514;49.468;11.044;2024-01-27T00:16:53;4.30;90.10
20706;DHT22;10514;49.468;11.044;2024-01-27T00:19:18;4.30;90.50
20706;DHT22;10514;49.468;11.044;2024-01-27T00:21:44;4.20;90.10
20706;DHT22;10514;49.468;11.044;2024-01-27T00:24:09;4.10;90.60
20706;DHT22;10514;49.468;11.044;2024-01-27T00:26:35;4.10;90.80
20706;DHT22;10514;49.468;11.044;2024-01-27T00:29:00;4.10;91.00
20706;DHT22;10514;49.468;11.044;2024-01-27T00:31:26;4.10;91.10
20706;DHT22;10514;49.468;11.044;2024-01-27T00:33:51;4.00;90.90
20706;DHT22;10514;49.468;11.044;2024-01-27T00:36:17;4.00;91.00
20706;DHT22;10514;49.468;11.044;2024-01-27T00:38:43;4.00;90.90
20706;DHT22;10514;49.468;11.044;2024-01-27T00:41:08;3.90;90.90
20706;DHT22;10514;49.468;11.044;2024-01-27T00:43:38;3.90;91.10
20706;DHT22;10514;49.468;11.044;2024-01-27T00:46:03;3.90;91.10
20706;DHT22;10514;49.468;11.044;2024-01-27T00:48:29;3.80;91.30
20706;DHT22;10514;49.468;11.044;2024-01-27T00:50:54;3.80;91.40
20706;DHT22;10514;49.468;11.044;2024-01-27T00:53:20;3.80;91.00
20706;DHT22;10514;49.468;11.044;2024-01-27T00:55:45;3.70;91.40
20706;DHT22;10514;49.468;11.044;2024-01-27T00:58:11;3.70;91.40
20706;DHT22;10514;49.468;11.044;2024-01-27T01:00:36;3.70;91.50
20706;DHT22;10514;49.468;11.044;2024-01-27T01:03:02;3.70;91.60
20706;DHT22;10514;49.468;11.044;2024-01-27T01:05:27;3.60;91.90
20706;DHT22;10514;49.468;11.044;2024-01-27T01:07:53;3.60;91.90
20706;DHT22;10514;49.468;11.044;2024-01-27T01:10:18;3.60;92.10
20706;DHT22;10514;49.468;11.044;2024-01-27T01:12:44;3.60;91.90
20706;DHT22;10514;49.468;11.044;2024-01-27T01:15:10;3.60;92.20
20706;DHT22;10514;49.468;11.044;2024-01-27T01:17:35;3.50;92.10
20706;DHT22;10514;49.468;11.044;2024-01-27T01:20:01;3.50;92.30
20706;DHT22;10514;49.468;11.044;2024-01-27T01:22:26;3.50;92.20
20706;DHT22;10514;49.468;11.044;2024-01-27T01:24:52;3.50;91.50
20706;DHT22;10514;49.468;11.044;2024-01-27T01:27:18;3.40;92.30
20706;DHT22;10514;49.468;11.044;2024-01-27T01:29:44;3.40;92.50
20706;DHT22;10514;49.468;11.044;2024-01-27T01:32:10;3.30;92.60
20706;DHT22;10514;49.468;11.044;2024-01-27T01:34:35;3.30;92.40
20706;DHT22;10514;49.468;11.044;2024-01-27T01:37:01;3.30;92.40
20706;DHT22;10514;49.468;11.044;2024-01-27T01:39:28;3.30;92.50
20706;DHT22;10514;49.468;11.044;2024-01-27T01:41:53;3.20;92.50
20706;DHT22;10514;49.468;11.044;2024-01-27T01:44:19;3.20;92.70
20706;DHT22;10514;49.468;11.044;2024-01-27T01:46:45;3.20;92.80
20706;DHT22;10514;49.468;11.044;2024-01-27T01:49:11;3.20;92.70
20706;DHT22;10514;49.468;11.044;2024-01-27T01:51:36;3.10;93.00
20706;DHT22;10514;49.468;11.044;2024-01-27T01:54:02;3.10;92.90
20706;DHT22;10514;49.468;11.044;2024-01-27T01:56:28;3.10;92.90
20706;DHT22;10514;49.468;11.044;2024-01-27T01:58:54;3.10;92.90
20706;DHT22;10514;49.468;11.044;2024-01-27T02:01:20;3.10;92.90
20706;DHT22;10514;49.468;11.044;2024-01-27T02:03:56;3.10;93.00
20706;DHT22;10514;49.468;11.044;2024-01-27T02:06:22;3.10;93.00
20706;DHT22;10514;49.468;11.044;2024-01-27T02:08:48;3.00;93.00
20706;DHT22;10514;49.468;11.044;2024-01-27T02:11:14;3.00;93.10
20706;DHT22;10514;49.468;11.044;2024-01-27T02:13:39;2.90;93.00
20706;DHT22;10514;49.468;11.044;2024-01-27T02:16:05;2.90;93.10
20706;DHT22;10514;49.468;11.044;2024-01-27T02:18:31;2.90;93.10
20706;DHT22;10514;49.468;11.044;2024-01-27T02:20:56;2.90;93.00
20706;DHT22;10514;49.468;11.044;2024-01-27T02:23:22;2.80;93.30
20706;DHT22;10514;49.468;11.044;2024-01-27T02:25:47;2.80;93.30
20706;DHT22;10514;49.468;11.044;2024-01-27T02:28:13;2.80;93.40
20706;DHT22;10514;49.468;11.044;2024-01-27T02:30:39;2.80;93.50
20706;DHT22;10514;49.468;11.044;2024-01-27T02:33:05;2.70;93.50
20706;DHT22;10514;49.468;11.044;2024-01-27T02:35:30;2.70;93.50
20706;DHT22;10514;49.468;11.044;2024-01-27T02:37:56;2.70;93.50
20706;DHT22;10514;49.468;11.044;2024-01-27T02:40:21;2.70;93.60
20706;DHT22;10514;49.468;11.044;2024-01-27T02:42:47;2.70;93.60
20706;DHT22;10514;49.468;11.044;2024-01-27T02:45:12;2.70;93.60
20706;DHT22;10514;49.468;11.044;2024-01-27T02:47:38;2.60;93.60
20706;DHT22;10514;49.468;11.044;2024-01-27T02:50:04;2.60;93.60
20706;DHT22;10514;49.468;11.044;2024-01-27T02:52:32;2.60;93.90
20706;DHT22;10514;49.468;11.044;2024-01-27T02:54:57;2.60;93.90
20706;DHT22;10514;49.468;11.044;2024-01-27T02:57:23;2.60;93.60
20706;DHT22;10514;49.468;11.044;2024-01-27T02:59:48;2.50;93.90
20706;DHT22;10514;49.468;11.044;2024-01-27T03:02:15;2.50;93.50
20706;DHT22;10514;49.468;11.044;2024-01-27T03:04:41;2.50;93.80
20706;DHT22;10514;49.468;11.044;2024-01-27T03:07:06;2.50;93.80
20706;DHT22;10514;49.468;11.044;2024-01-27T03:09:32;2.40;93.80
20706;DHT22;10514;49.468;11.044;2024-01-27T03:11:58;2.40;93.60
20706;DHT22;10514;49.468;11.044;2024-01-27T03:14:24;2.40;94.00
20706;DHT22;10514;49.468;11.044;2024-01-27T03:16:49;2.40;93.90
20706;DHT22;10514;49.468;11.044;2024-01-27T03:19:15;2.40;93.90
20706;DHT22;10514;49.468;11.044;2024-01-27T03:21:40;2.30;94.00
20706;DHT22;10514;49.468;11.044;2024-01-27T03:24:06;2.30;93.90
20706;DHT22;10514;49.468;11.044;2024-01-27T03:26:32;2.30;94.00
20706;DHT22;10514;49.468;11.044;2024-01-27T03:28:57;2.30;94.00
20706;DHT22;10514;49.468;11.044;2024-01-27T03:31:23;2.20;93.40
20706;DHT22;10514;49.468;11.044;2024-01-27T03:33:49;2.20;93.80
20706;DHT22;10514;49.468;11.044;2024-01-27T03:36:15;2.10;93.60
20706;DHT22;10514;49.468;11.044;2024-01-27T03:38:41;2.00;93.70
20706;DHT22;10514;49.468;11.044;2024-01-27T03:41:07;2.00;93.90
20706;DHT22;10514;49.468;11.044;2024-01-27T03:43:35;1.90;93.70
20706;DHT22;10514;49.468;11.044;2024-01-27T03:46:01;1.90;94.30
20706;DHT22;10514;49.468;11.044;2024-01-27T03:48:28;1.90;94.30
20706;DHT22;10514;49.468;11.044;2024-01-27T03:50:53;1.90;94.30
20706;DHT22;10514;49.468;11.044;2024-01-27T03:53:19;1.90;94.40
20706;DHT22;10514;49.468;11.044;2024-01-27T03:55:44;1.80;94.40
20706;DHT22;10514;49.468;11.044;2024-01-27T03:58:10;1.80;94.60
20706;DHT22;10514;49.468;11.044;2024-01-27T04:00:35;1.80;94.50
20706;DHT22;10514;49.468;11.044;2024-01-27T04:03:01;1.70;94.50
20706;DHT22;10514;49.468;11.044;2024-01-27T04:05:28;1.70;94.50
20706;DHT22;10514;49.468;11.044;2024-01-27T04:07:54;1.80;94.70
20706;DHT22;10514;49.468;11.044;2024-01-27T04:10:20;1.70;94.70
20706;DHT22;10514;49.468;11.044;2024-01-27T04:12:46;1.70;94.50
20706;DHT22;10514;49.468;11.044;2024-01-27T04:15:12;1.70;94.50
20706;DHT22;10514;49.468;11.044;2024-01-27T04:17:37;1.70;94.60
20706;DHT22;10514;49.468;11.044;2024-01-27T04:20:03;1.60;94.50
20706;DHT22;10514;49.468;11.044;2024-01-27T04:22:30;1.60;94.50
20706;DHT22;10514;49.468;11.044;2024-01-27T04:24:55;1.60;94.60
20706;DHT22;10514;49.468;11.044;2024-01-27T04:27:21;1.50;94.60
20706;DHT22;10514;49.468;11.044;2024-01-27T04:29:46;1.50;94.70
20706;DHT22;10514;49.468;11.044;2024-01-27T04:32:12;1.50;94.80
20706;DHT22;10514;49.468;11.044;2024-01-27T04:34:38;1.50;94.90
20706;DHT22;10514;49.468;11.044;2024-01-27T04:37:04;1.50;94.80
20706;DHT22;10514;49.468;11.044;2024-01-27T04:39:30;1.50;95.00
20706;DHT22;10514;49.468;11.044;2024-01-27T04:41:55;1.50;95.00
20706;DHT22;10514;49.468;11.044;2024-01-27T04:44:21;1.50;95.10
20706;DHT22;10514;49.468;11.044;2024-01-27T04:46:46;1.50;95.10
20706;DHT22;10514;49.468;11.044;2024-01-27T04:49:13;1.40;95.10
20706;DHT22;10514;49.468;11.044;2024-01-27T04:51:39;1.40;95.10
20706;DHT22;10514;49.468;11.044;2024-01-27T04:54:04;1.40;95.20
20706;DHT22;10514;49.468;11.044;2024-01-27T04:56:30;1.40;94.90
20706;DHT22;10514;49.468;11.044;2024-01-27T04:58:55;1.30;94.80
20706;DHT22;10514;49.468;11.044;2024-01-27T05:01:21;1.30;94.90
20706;DHT22;10514;49.468;11.044;2024-01-27T05:03:47;1.20;94.80
20706;DHT22;10514;49.468;11.044;2024-01-27T05:06:12;1.20;94.80
20706;DHT22;10514;49.468;11.044;2024-01-27T05:08:38;1.10;94.80
20706;DHT22;10514;49.468;11.044;2024-01-27T05:11:04;1.10;94.70
20706;DHT22;10514;49.468;11.044;2024-01-27T05:13:30;1.00;94.80
20706;DHT22;10514;49.468;11.044;2024-01-27T05:15:56;0.90;95.30
20706;DHT22;10514;49.468;11.044;2024-01-27T05:18:22;1.00;95.60
20706;DHT22;10514;49.468;11.044;2024-01-27T05:20:47;1.00;95.80
20706;DHT22;10514;49.468;11.044;2024-01-27T05:23:13;1.00;96.10
20706;DHT22;10514;49.468;11.044;2024-01-27T05:25:38;1.00;96.10
20706;DHT22;10514;49.468;11.044;2024-01-27T05:28:05;1.00;96.20
20706;DHT22;10514;49.468;11.044;2024-01-27T05:30:30;1.00;96.20
20706;DHT22;10514;49.468;11.044;2024-01-27T05:32:56;1.00;96.10
20706;DHT22;10514;49.468;11.044;2024-01-27T05:35:21;1.00;96.20
20706;DHT22;10514;49.468;11.044;2024-01-27T05:37:47;1.00;96.20
20706;DHT22;10514;49.468;11.044;2024-01-27T05:40:12;1.00;96.00
20706;DHT22;10514;49.468;11.044;2024-01-27T05:42:38;1.00;96.00
20706;DHT22;10514;49.468;11.044;2024-01-27T05:45:07;1.00;96.10
20706;DHT22;10514;49.468;11.044;2024-01-27T05:47:33;1.00;96.10
20706;DHT22;10514;49.468;11.044;2024-01-27T05:49:59;1.00;96.00
20706;DHT22;10514;49.468;11.044;2024-01-27T05:52:25;1.00;96.30
20706;DHT22;10514;49.468;11.044;2024-01-27T05:54:51;1.00;95.90
20706;DHT22;10514;49.468;11.044;2024-01-27T05:57:17;1.00;96.00
20706;DHT22;10514;49.468;11.044;2024-01-27T05:59:42;1.00;96.00
20706;DHT22;10514;49.468;11.044;2024-01-27T06:02:08;1.00;96.00
20706;DHT22;10514;49.468;11.044;2024-01-27T06:04:33;0.90;95.80
20706;DHT22;10514;49.468;11.044;2024-01-27T06:06:59;0.90;95.80
20706;DHT22;10514;49.468;11.044;2024-01-27T06:09:25;0.90;95.80
20706;DHT22;10514;49.468;11.044;2024-01-27T06:11:51;0.90;95.90
20706;DHT22;10514;49.468;11.044;2024-01-27T06:14:16;0.90;96.10
20706;DHT22;10514;49.468;11.044;2024-01-27T06:16:42;0.90;96.20
20706;DHT22;10514;49.468;11.044;2024-01-27T06:19:07;0.90;96.20
20706;DHT22;10514;49.468;11.044;2024-01-27T06:21:34;0.90;96.20
20706;DHT22;10514;49.468;11.044;2024-01-27T06:24:00;0.90;96.20
20706;DHT22;10514;49.468;11.044;2024-01-27T06:26:26;0.90;96.20
20706;DHT22;10514;49.468;11.044;2024-01-27T06:28:51;0.90;96.20
20706;DHT22;10514;49.468;11.044;2024-01-27T06:31:17;0.90;96.20
20706;DHT22;10514;49.468;11.044;2024-01-27T06:33:42;0.90;96.20
20706;DHT22;10514;49.468;11.044;2024-01-27T06:36:08;0.90;96.10
20706;DHT22;10514;49.468;11.044;2024-01-27T06:38:36;0.90;96.00
20706;DHT22;10514;49.468;11.044;2024-01-27T06:41:03;0.90;95.90
20706;DHT22;10514;49.468;11.044;2024-01-27T06:43:29;0.90;95.80
20706;DHT22;10514;49.468;11.044;2024-01-27T06:45:54;0.90;96.10
20706;DHT22;10514;49.468;11.044;2024-01-27T06:48:22;0.90;96.10
20706;DHT22;10514;49.468;11.044;2024-01-27T06:50:50;0.90;96.10
20706;DHT22;10514;49.468;11.044;2024-01-27T06:53:21;0.80;96.00
20706;DHT22;10514;49.468;11.044;2024-01-27T06:55:46;0.80;95.80
20706;DHT22;10514;49.468;11.044;2024-01-27T06:58:12;0.80;95.90
20706;DHT22;10514;49.468;11.044;2024-01-27T07:00:37;0.80;95.90
20706;DHT22;10514;49.468;11.044;2024-01-27T07:03:03;0.70;96.00
20706;DHT22;10514;49.468;11.044;2024-01-27T07:05:29;0.70;96.10
20706;DHT22;10514;49.468;11.044;2024-01-27T07:07:55;0.70;96.10
20706;DHT22;10514;49.468;11.044;2024-01-27T07:10:20;0.80;96.10
20706;DHT22;10514;49.468;11.044;2024-01-27T07:12:46;0.80;96.10
20706;DHT22;10514;49.468;11.044;2024-01-27T07:15:11;0.80;96.00
20706;DHT22;10514;49.468;11.044;2024-01-27T07:17:37;0.80;96.20
20706;DHT22;10514;49.468;11.044;2024-01-27T07:20:02;0.80;96.10
20706;DHT22;10514;49.468;11.044;2024-01-27T07:22:28;0.80;96.20
20706;DHT22;10514;49.468;11.044;2024-01-27T07:24:54;0.80;96.00
20706;DHT22;10514;49.468;11.044;2024-01-27T07:27:22;0.80;96.20
20706;DHT22;10514;49.468;11.044;2024-01-27T07:29:48;0.90;96.00
20706;DHT22;10514;49.468;11.044;2024-01-27T07:32:14;0.90;96.00
20706;DHT22;10514;49.468;11.044;2024-01-27T07:34:43;0.90;96.10
20706;DHT22;10514;49.468;11.044;2024-01-27T07:37:09;0.90;95.60
20706;DHT22;10514;49.468;11.044;2024-01-27T07:39:34;1.00;95.90
20706;DHT22;10514;49.468;11.044;2024-01-27T07:42:00;1.00;96.00
20706;DHT22;10514;49.468;11.044;2024-01-27T07:44:26;1.00;95.70
20706;DHT22;10514;49.468;11.044;2024-01-27T07:46:52;1.10;95.90
20706;DHT22;10514;49.468;11.044;2024-01-27T07:49:17;1.10;95.80
20706;DHT22;10514;49.468;11.044;2024-01-27T07:51:44;1.20;95.90
20706;DHT22;10514;49.468;11.044;2024-01-27T07:54:09;1.20;95.70
20706;DHT22;10514;49.468;11.044;2024-01-27T07:56:35;1.40;95.80
20706;DHT22;10514;49.468;11.044;2024-01-27T07:59:00;1.70;95.70
20706;DHT22;10514;49.468;11.044;2024-01-27T08:01:26;2.40;95.00
20706;DHT22;10514;49.468;11.044;2024-01-27T08:03:52;3.30;93.20
20706;DHT22;10514;49.468;11.044;2024-01-27T08:06:19;4.30;90.60
20706;DHT22;10514;49.468;11.044;2024-01-27T08:08:48;5.20;82.70
20706;DHT22;10514;49.468;11.044;2024-01-27T08:11:14;6.10;78.60
20706;DHT22;10514;49.468;11.044;2024-01-27T08:13:40;6.70;72.70
20706;DHT22;10514;49.468;11.044;2024-01-27T08:16:07;7.40;69.80
20706;DHT22;10514;49.468;11.044;2024-01-27T08:18:38;8.00;66.80
20706;DHT22;10514;49.468;11.044;2024-01-27T08:21:04;8.20;65.10
20706;DHT22;10514;49.468;11.044;2024-01-27T08:23:30;7.80;65.20
20706;DHT22;10514;49.468;11.044;2024-01-27T08:25:55;7.50;65.60
20706;DHT22;10514;49.468;11.044;2024-01-27T08:28:22;6.80;67.20
20706;DHT22;10514;49.468;11.044;2024-01-27T08:30:47;6.40;68.90
20706;DHT22;10514;49.468;11.044;2024-01-27T08:33:13;5.80;71.50
20706;DHT22;10514;49.468;11.044;2024-01-27T08:35:38;5.30;73.40
20706;DHT22;10514;49.468;11.044;2024-01-27T08:38:04;4.90;75.30
20706;DHT22;10514;49.468;11.044;2024-01-27T08:40:31;4.70;76.70
20706;DHT22;10514;49.468;11.044;2024-01-27T08:42:57;4.30;78.00
20706;DHT22;10514;49.468;11.044;2024-01-27T08:45:22;4.00;80.20
20706;DHT22;10514;49.468;11.044;2024-01-27T08:47:48;3.80;81.20
20706;DHT22;10514;49.468;11.044;2024-01-27T08:50:14;3.70;82.40
20706;DHT22;10514;49.468;11.044;2024-01-27T08:52:39;3.40;83.90
20706;DHT22;10514;49.468;11.044;2024-01-27T08:55:05;3.30;85.00
20706;DHT22;10514;49.468;11.044;2024-01-27T08:57:31;3.30;85.80
20706;DHT22;10514;49.468;11.044;2024-01-27T08:59:56;3.20;86.50
20706;DHT22;10514;49.468;11.044;2024-01-27T09:02:22;3.20;87.60
20706;DHT22;10514;49.468;11.044;2024-01-27T09:04:47;3.20;87.80
20706;DHT22;10514;49.468;11.044;2024-01-27T09:07:13;3.10;88.40
20706;DHT22;10514;49.468;11.044;2024-01-27T09:09:38;3.10;88.60
20706;DHT22;10514;49.468;11.044;2024-01-27T09:12:04;3.10;88.20
20706;DHT22;10514;49.468;11.044;2024-01-27T09:14:30;3.10;88.40
20706;DHT22;10514;49.468;11.044;2024-01-27T09:16:55;3.20;88.70
20706;DHT22;10514;49.468;11.044;2024-01-27T09:19:21;3.30;88.40
20706;DHT22;10514;49.468;11.044;2024-01-27T09:21:47;3.30;88.60
20706;DHT22;10514;49.468;11.044;2024-01-27T09:24:13;3.30;88.20
20706;DHT22;10514;49.468;11.044;2024-01-27T09:26:38;3.30;87.10
20706;DHT22;10514;49.468;11.044;2024-01-27T09:29:04;3.40;87.00
20706;DHT22;10514;49.468;11.044;2024-01-27T09:31:29;3.40;87.20
20706;DHT22;10514;49.468;11.044;2024-01-27T09:33:55;3.50;87.60
20706;DHT22;10514;49.468;11.044;2024-01-27T09:36:21;3.60;87.00
20706;DHT22;10514;49.468;11.044;2024-01-27T09:38:47;3.70;86.10
20706;DHT22;10514;49.468;11.044;2024-01-27T09:41:13;3.80;85.90
20706;DHT22;10514;49.468;11.044;2024-01-27T09:43:43;3.90;85.50
20706;DHT22;10514;49.468;11.044;2024-01-27T09:46:16;4.10;85.30
20706;DHT22;10514;49.468;11.044;2024-01-27T09:48:42;4.10;83.90
20706;DHT22;10514;49.468;11.044;2024-01-27T09:51:09;4.30;83.20
20706;DHT22;10514;49.468;11.044;2024-01-27T09:53:35;4.40;83.20
20706;DHT22;10514;49.468;11.044;2024-01-27T09:56:01;4.50;82.30
20706;DHT22;10514;49.468;11.044;2024-01-27T09:58:29;4.60;81.50
20706;DHT22;10514;49.468;11.044;2024-01-27T10:00:56;4.60;81.00
20706;DHT22;10514;49.468;11.044;2024-01-27T10:03:26;4.60;81.00
20706;DHT22;10514;49.468;11.044;2024-01-27T10:05:56;4.70;79.80
20706;DHT22;10514;49.468;11.044;2024-01-27T10:08:23;4.70;80.80
20706;DHT22;10514;49.468;11.044;2024-01-27T10:10:55;4.80;81.30
20706;DHT22;10514;49.468;11.044;2024-01-27T10:13:22;4.80;79.60
20706;DHT22;10514;49.468;11.044;2024-01-27T10:16:04;4.80;80.00
20706;DHT22;10514;49.468;11.044;2024-01-27T10:18:31;4.80;80.20
20706;DHT22;10514;49.468;11.044;2024-01-27T10:20:57;4.90;80.10
20706;DHT22;10514;49.468;11.044;2024-01-27T10:23:22;4.90;81.20
20706;DHT22;10514;49.468;11.044;2024-01-27T10:25:49;5.00;79.30
20706;DHT22;10514;49.468;11.044;2024-01-27T10:28:15;5.10;79.30
20706;DHT22;10514;49.468;11.044;2024-01-27T10:30:40;5.10;79.90
20706;DHT22;10514;49.468;11.044;2024-01-27T10:33:10;5.10;79.50
20706;DHT22;10514;49.468;11.044;2024-01-27T10:35:36;5.10;79.70
20706;DHT22;10514;49.468;11.044;2024-01-27T10:38:01;5.10;78.00
20706;DHT22;10514;49.468;11.044;2024-01-27T10:40:27;5.20;78.60
20706;DHT22;10514;49.468;11.044;2024-01-27T10:43:02;5.20;78.90
20706;DHT22;10514;49.468;11.044;2024-01-27T10:45:38;5.20;79.20
20706;DHT22;10514;49.468;11.044;2024-01-27T10:48:05;5.30;78.30
20706;DHT22;10514;49.468;11.044;2024-01-27T10:50:35;5.30;77.70
20706;DHT22;10514;49.468;11.044;2024-01-27T10:53:03;5.30;78.70
20706;DHT22;10514;49.468;11.044;2024-01-27T10:55:30;5.30;78.70
20706;DHT22;10514;49.468;11.044;2024-01-27T10:57:58;5.30;78.10
20706;DHT22;10514;49.468;11.044;2024-01-27T11:00:27;5.40;77.70
20706;DHT22;10514;49.468;11.044;2024-01-27T11:02:54;5.40;77.60
20706;DHT22;10514;49.468;11.044;2024-01-27T11:05:24;5.40;78.20
20706;DHT22;10514;49.468;11.044;2024-01-27T11:07:50;5.50;78.30
20706;DHT22;10514;49.468;11.044;2024-01-27T11:10:17;5.50;77.40
20706;DHT22;10514;49.468;11.044;2024-01-27T11:12:43;5.70;76.80
20706;DHT22;10514;49.468;11.044;2024-01-27T11:15:09;5.70;77.10
20706;DHT22;10514;49.468;11.044;2024-01-27T11:17:41;5.80;75.80
20706;DHT22;10514;49.468;11.044;2024-01-27T11:20:10;5.90;76.40
20706;DHT22;10514;49.468;11.044;2024-01-27T11:22:37;5.90;76.40
20706;DHT22;10514;49.468;11.044;2024-01-27T11:27:39;5.90;75.20
20706;DHT22;10514;49.468;11.044;2024-01-27T11:30:05;5.90;75.50
20706;DHT22;10514;49.468;11.044;2024-01-27T11:32:31;6.00;76.00
20706;DHT22;10514;49.468;11.044;2024-01-27T11:35:01;6.10;75.10
20706;DHT22;10514;49.468;11.044;2024-01-27T11:37:30;6.20;74.10
20706;DHT22;10514;49.468;11.044;2024-01-27T11:40:06;6.10;73.50
20706;DHT22;10514;49.468;11.044;2024-01-27T11:42:32;6.10;73.30
20706;DHT22;10514;49.468;11.044;2024-01-27T11:44:58;6.10;73.80
20706;DHT22;10514;49.468;11.044;2024-01-27T11:47:25;6.20;74.00
20706;DHT22;10514;49.468;11.044;2024-01-27T11:49:55;6.20;73.40
20706;DHT22;10514;49.468;11.044;2024-01-27T11:52:23;6.10;73.20
20706;DHT22;10514;49.468;11.044;2024-01-27T11:54:56;6.10;72.80
20706;DHT22;10514;49.468;11.044;2024-01-27T11:57:21;6.10;73.50
20706;DHT22;10514;49.468;11.044;2024-01-27T11:59:47;6.10;72.90
20706;DHT22;10514;49.468;11.044;2024-01-27T12:02:13;6.10;74.00
20706;DHT22;10514;49.468;11.044;2024-01-27T12:04:39;6.10;73.00
20706;DHT22;10514;49.468;11.044;2024-01-27T12:07:04;6.10;73.30
20706;DHT22;10514;49.468;11.044;2024-01-27T12:09:30;6.20;73.30
20706;DHT22;10514;49.468;11.044;2024-01-27T12:11:55;6.10;71.90
20706;DHT22;10514;49.468;11.044;2024-01-27T12:14:21;6.10;72.80
20706;DHT22;10514;49.468;11.044;2024-01-27T12:16:46;6.10;72.30
20706;DHT22;10514;49.468;11.044;2024-01-27T12:19:13;6.10;72.20
20706;DHT22;10514;49.468;11.044;2024-01-27T12:21:38;6.20;71.10
20706;DHT22;10514;49.468;11.044;2024-01-27T12:24:16;6.20;71.40
20706;DHT22;10514;49.468;11.044;2024-01-27T12:26:42;6.20;72.00
20706;DHT22;10514;49.468;11.044;2024-01-27T12:29:07;6.20;71.60
20706;DHT22;10514;49.468;11.044;2024-01-27T12:31:33;6.20;71.50
20706;DHT22;10514;49.468;11.044;2024-01-27T12:33:59;6.30;72.10
20706;DHT22;10514;49.468;11.044;2024-01-27T12:36:24;6.30;72.20
20706;DHT22;10514;49.468;11.044;2024-01-27T12:39:01;6.30;70.80
20706;DHT22;10514;49.468;11.044;2024-01-27T12:41:28;6.30;70.60
20706;DHT22;10514;49.468;11.044;2024-01-27T12:43:55;6.30;70.70
20706;DHT22;10514;49.468;11.044;2024-01-27T12:46:21;6.50;68.60
20706;DHT22;10514;49.468;11.044;2024-01-27T12:48:47;6.40;69.80
20706;DHT22;10514;49.468;11.044;2024-01-27T12:51:12;6.40;70.60
20706;DHT22;10514;49.468;11.044;2024-01-27T12:53:39;6.30;69.30
20706;DHT22;10514;49.468;11.044;2024-01-27T12:56:08;6.30;70.30
20706;DHT22;10514;49.468;11.044;2024-01-27T12:58:34;6.30;71.80
20706;DHT22;10514;49.468;11.044;2024-01-27T13:00:59;6.30;70.60
20706;DHT22;10514;49.468;11.044;2024-01-27T13:03:25;6.30;71.30
20706;DHT22;10514;49.468;11.044;2024-01-27T13:05:50;6.30;71.30
20706;DHT22;10514;49.468;11.044;2024-01-27T13:08:16;6.30;70.60
20706;DHT22;10514;49.468;11.044;2024-01-27T13:10:41;6.40;70.10
20706;DHT22;10514;49.468;11.044;2024-01-27T13:13:09;6.40;69.60
20706;DHT22;10514;49.468;11.044;2024-01-27T13:15:34;6.40;71.70
20706;DHT22;10514;49.468;11.044;2024-01-27T13:18:00;6.40;72.10
20706;DHT22;10514;49.468;11.044;2024-01-27T13:20:25;6.40;70.70
20706;DHT22;10514;49.468;11.044;2024-01-27T13:22:51;6.40;71.20
20706;DHT22;10514;49.468;11.044;2024-01-27T13:25:19;6.40;70.00
20706;DHT22;10514;49.468;11.044;2024-01-27T13:27:45;6.50;68.60
20706;DHT22;10514;49.468;11.044;2024-01-27T13:30:11;6.50;68.60
20706;DHT22;10514;49.468;11.044;2024-01-27T13:32:38;6.50;67.50
20706;DHT22;10514;49.468;11.044;2024-01-27T13:35:03;6.60;68.50
20706;DHT22;10514;49.468;11.044;2024-01-27T13:37:29;6.60;66.80
20706;DHT22;10514;49.468;11.044;2024-01-27T13:40:05;6.60;68.50
20706;DHT22;10514;49.468;11.044;2024-01-27T13:42:32;6.70;72.30
20706;DHT22;10514;49.468;11.044;2024-01-27T13:44:58;7.10;71.60
20706;DHT22;10514;49.468;11.044;2024-01-27T13:47:24;7.20;68.20
20706;DHT22;10514;49.468;11.044;2024-01-27T13:49:49;7.40;67.40
20706;DHT22;10514;49.468;11.044;2024-01-27T13:52:15;7.60;66.50
20706;DHT22;10514;49.468;11.044;2024-01-27T13:54:42;7.80;65.90
20706;DHT22;10514;49.468;11.044;2024-01-27T13:57:07;7.90;66.00
20706;DHT22;10514;49.468;11.044;2024-01-27T13:59:35;8.00;64.40
20706;DHT22;10514;49.468;11.044;2024-01-27T14:02:01;8.00;63.70
20706;DHT22;10514;49.468;11.044;2024-01-27T14:04:26;8.00;63.60
20706;DHT22;10514;49.468;11.044;2024-01-27T14:06:52;8.00;62.80
20706;DHT22;10514;49.468;11.044;2024-01-27T14:09:25;8.00;62.70
20706;DHT22;10514;49.468;11.044;2024-01-27T14:11:53;7.90;63.00
20706;DHT22;10514;49.468;11.044;2024-01-27T14:14:19;8.00;65.00
20706;DHT22;10514;49.468;11.044;2024-01-27T14:16:46;8.10;63.70
20706;DHT22;10514;49.468;11.044;2024-01-27T14:19:11;8.20;63.70
20706;DHT22;10514;49.468;11.044;2024-01-27T14:21:37;8.30;62.70
20706;DHT22;10514;49.468;11.044;2024-01-27T14:24:03;8.30;62.30
20706;DHT22;10514;49.468;11.044;2024-01-27T14:26:31;8.10;62.40
20706;DHT22;10514;49.468;11.044;2024-01-27T14:28:57;8.10;63.40
20706;DHT22;10514;49.468;11.044;2024-01-27T14:31:22;8.10;63.90
20706;DHT22;10514;49.468;11.044;2024-01-27T14:33:48;8.00;63.90
20706;DHT22;10514;49.468;11.044;2024-01-27T14:36:14;8.00;64.10
20706;DHT22;10514;49.468;11.044;2024-01-27T14:38:40;7.90;63.60
20706;DHT22;10514;49.468;11.044;2024-01-27T14:41:07;7.70;63.40
20706;DHT22;10514;49.468;11.044;2024-01-27T14:43:33;7.60;64.90
20706;DHT22;10514;49.468;11.044;2024-01-27T14:45:58;7.60;65.80
20706;DHT22;10514;49.468;11.044;2024-01-27T14:48:24;7.60;66.00
20706;DHT22;10514;49.468;11.044;2024-01-27T14:50:49;7.60;66.30
20706;DHT22;10514;49.468;11.044;2024-01-27T14:53:22;7.50;66.30
20706;DHT22;10514;49.468;11.044;2024-01-27T14:55:48;7.50;66.00
20706;DHT22;10514;49.468;11.044;2024-01-27T14:58:14;7.40;66.20
20706;DHT22;10514;49.468;11.044;2024-01-27T15:00:39;7.40;66.20
20706;DHT22;10514;49.468;11.044;2024-01-27T15:03:08;7.50;66.20
20706;DHT22;10514;49.468;11.044;2024-01-27T15:05:34;7.40;67.30
20706;DHT22;10514;49.468;11.044;2024-01-27T15:08:03;7.40;67.00
20706;DHT22;10514;49.468;11.044;2024-01-27T15:10:28;7.40;66.90
20706;DHT22;10514;49.468;11.044;2024-01-27T15:12:54;7.30;67.70
20706;DHT22;10514;49.468;11.044;2024-01-27T15:15:20;7.30;67.90
20706;DHT22;10514;49.468;11.044;2024-01-27T15:17:45;7.30;67.90
20706;DHT22;10514;49.468;11.044;2024-01-27T15:20:11;7.20;68.20
20706;DHT22;10514;49.468;11.044;2024-01-27T15:22:37;7.20;68.00
20706;DHT22;10514;49.468;11.044;2024-01-27T15:25:03;7.10;68.80
20706;DHT22;10514;49.468;11.044;2024-01-27T15:27:30;7.00;69.20